createdAt,value
2019-05-14T00:00:22.535Z,1.32
2019-05-14T00:02:52.223Z,1.55
2019-05-14T00:05:21.823Z,1.60
2019-05-14T00:07:52.110Z,1.35
2019-05-14T00:10:21.953Z,1.70
2019-05-14T00:12:51.423Z,1.77
2019-05-14T00:15:21.716Z,1.30
2019-05-14T00:17:52.240Z,1.17
2019-05-14T00:20:22.557Z,1.50
2019-05-14T00:22:52.294Z,1.35
2019-05-14T00:25:22.109Z,1.20
2019-05-14T00:27:52.028Z,1.47
2019-05-14T00:30:22.063Z,1.50
2019-05-14T00:32:52.177Z,1.40
2019-05-14T00:35:21.681Z,1.05
2019-05-14T00:37:52.063Z,1.40
2019-05-14T00:40:22.141Z,1.87
2019-05-14T00:42:53.265Z,1.65
2019-05-14T00:45:22.954Z,1.50
2019-05-14T00:47:52.678Z,1.20
2019-05-14T00:50:22.238Z,1.42
2019-05-14T00:52:51.870Z,1.17
2019-05-14T00:55:22.384Z,1.15
2019-05-14T00:57:52.312Z,1.50
2019-05-14T01:00:22.175Z,1.02
2019-05-14T01:02:51.968Z,1.35
2019-05-14T01:05:21.729Z,1.87
2019-05-14T01:07:51.555Z,1.85
2019-05-14T01:10:22.117Z,1.77
2019-05-14T01:12:52.197Z,1.40
2019-05-14T01:15:21.900Z,1.10
2019-05-14T01:17:51.724Z,1.37
2019-05-14T01:20:21.450Z,1.27
2019-05-14T01:22:51.666Z,1.30
2019-05-14T01:25:23.635Z,1.60
2019-05-14T01:27:52.426Z,1.65
2019-05-14T01:30:22.168Z,1.77
2019-05-14T01:32:51.650Z,1.20
2019-05-14T01:35:22.191Z,1.55
2019-05-14T01:37:52.329Z,1.70
2019-05-14T01:40:22.022Z,1.75
2019-05-14T01:42:52.232Z,1.15
2019-05-14T01:45:27.980Z,1.55
2019-05-14T01:47:53.049Z,1.47
2019-05-14T01:50:22.595Z,2.00
2019-05-14T01:52:52.202Z,1.10
2019-05-14T01:55:21.977Z,1.42
2019-05-14T01:57:51.908Z,1.45
2019-05-14T02:00:22.190Z,1.50
2019-05-14T02:02:52.417Z,1.40
2019-05-14T02:05:22.141Z,1.47
2019-05-14T02:07:52.593Z,1.20
2019-05-14T02:10:22.813Z,1.10
2019-05-14T02:12:52.289Z,1.40
2019-05-14T02:15:35.264Z,1.50
2019-05-14T02:17:53.110Z,1.17
2019-05-14T02:20:22.678Z,1.27
2019-05-14T02:22:52.530Z,1.70
2019-05-14T02:25:22.052Z,1.65
2019-05-14T02:27:51.948Z,1.00
2019-05-14T02:30:31.702Z,2.08
2019-05-14T02:32:52.951Z,1.27
2019-05-14T02:35:22.505Z,1.67
2019-05-14T02:37:52.013Z,1.22
2019-05-14T02:40:21.550Z,1.00
2019-05-14T02:42:51.129Z,1.30
2019-05-14T02:45:20.825Z,1.52
2019-05-14T02:47:50.670Z,1.42
2019-05-14T02:50:20.517Z,1.82
2019-05-14T02:52:50.051Z,1.65
2019-05-14T02:55:19.695Z,1.60
2019-05-14T02:57:50.052Z,1.72
2019-05-14T03:00:20.137Z,1.30
2019-05-14T03:02:49.744Z,1.37
2019-05-14T03:05:19.501Z,1.77
2019-05-14T03:07:50.167Z,1.62
2019-05-14T03:10:20.207Z,1.65
2019-05-14T03:12:50.376Z,1.72
2019-05-14T03:15:20.393Z,2.45
2019-05-14T03:17:49.948Z,2.00
2019-05-14T03:20:19.902Z,1.92
2019-05-14T03:23:02.720Z,2.25
2019-05-14T03:25:21.101Z,2.40
2019-05-14T03:27:50.652Z,2.55
2019-05-14T03:30:22.737Z,2.05
2019-05-14T03:32:53.466Z,2.10
2019-05-14T03:35:29.315Z,3.10
2019-05-14T03:37:54.434Z,2.27
2019-05-14T03:40:23.897Z,1.70
2019-05-14T03:42:53.482Z,2.47
2019-05-14T03:45:23.041Z,2.12
2019-05-14T03:47:52.545Z,1.82
2019-05-14T03:50:22.098Z,2.60
2019-05-14T03:52:51.562Z,2.35
2019-05-14T03:55:21.059Z,2.25
2019-05-14T03:57:50.552Z,2.30
2019-05-14T04:00:24.695Z,1.72
2019-05-14T04:02:54.344Z,2.20
2019-05-14T04:05:24.367Z,1.65
2019-05-14T04:07:54.284Z,2.60
2019-05-14T04:10:24.018Z,2.72
2019-05-14T04:12:54.148Z,2.42
2019-05-14T04:15:29.652Z,2.40
2019-05-14T04:17:59.680Z,2.22
2019-05-14T04:20:32.376Z,2.83
2019-05-14T04:23:03.673Z,2.58
2019-05-14T04:25:34.536Z,2.77
2019-05-14T04:28:09.642Z,2.80
2019-05-14T04:30:40.234Z,2.77
2019-05-14T04:33:10.745Z,2.37
2019-05-14T04:35:41.064Z,2.90
2019-05-14T04:38:10.668Z,2.60
2019-05-14T04:40:40.174Z,2.50
2019-05-14T04:43:10.288Z,3.47
2019-05-14T04:45:39.889Z,3.05
2019-05-14T04:48:27.287Z,2.70
2019-05-14T04:50:40.742Z,2.58
2019-05-14T04:53:11.261Z,2.98
2019-05-14T04:55:40.754Z,3.67
2019-05-14T04:58:10.362Z,2.98
2019-05-14T05:00:39.959Z,2.75
2019-05-14T05:03:12.642Z,2.90
2019-05-14T05:05:40.721Z,3.52
2019-05-14T05:08:14.028Z,3.35
2019-05-14T05:10:41.558Z,3.02
2019-05-14T05:13:11.056Z,3.37
2019-05-14T05:15:40.540Z,2.27
2019-05-14T05:18:10.115Z,2.98
2019-05-14T05:20:39.603Z,3.55
2019-05-14T05:23:09.093Z,3.25
2019-05-14T05:25:38.634Z,2.65
2019-05-14T05:28:08.826Z,2.58
2019-05-14T05:30:38.651Z,2.55
2019-05-14T05:33:09.083Z,2.85
2019-05-14T05:35:42.239Z,3.40
2019-05-14T05:38:09.913Z,3.02
2019-05-14T05:40:39.453Z,2.65
2019-05-14T05:43:09.086Z,3.12
2019-05-14T05:45:38.630Z,3.33
2019-05-14T05:48:08.358Z,2.98
2019-05-14T05:50:38.937Z,3.15
2019-05-14T05:53:08.997Z,2.62
2019-05-14T05:55:39.418Z,3.10
2019-05-14T05:58:09.000Z,3.22
2019-05-14T06:00:42.468Z,3.47
2019-05-14T06:03:12.027Z,3.70
2019-05-14T06:05:41.674Z,3.65
2019-05-14T06:08:11.231Z,3.70
2019-05-14T06:10:40.742Z,3.12
2019-05-14T06:13:13.664Z,3.37
2019-05-14T06:15:48.282Z,3.20
2019-05-14T06:18:18.037Z,3.60
2019-05-14T06:20:43.933Z,4.00
2019-05-14T06:23:13.470Z,4.05
2019-05-14T06:25:43.050Z,4.25
2019-05-14T06:28:12.521Z,3.77
2019-05-14T06:30:42.462Z,3.98
2019-05-14T06:33:11.934Z,3.80
2019-05-14T06:35:41.500Z,3.80
2019-05-14T06:38:11.041Z,4.83
2019-05-14T06:40:40.534Z,4.60
2019-05-14T06:43:10.036Z,4.10
2019-05-14T06:45:39.547Z,4.30
2019-05-14T06:48:09.082Z,3.92
2019-05-14T06:50:39.321Z,4.08
2019-05-14T06:53:08.931Z,3.87
2019-05-14T06:55:39.281Z,3.60
2019-05-14T06:58:09.288Z,4.90
2019-05-14T07:00:39.548Z,3.33
2019-05-14T07:03:09.216Z,3.70
2019-05-14T07:05:39.112Z,3.77
2019-05-14T07:08:09.109Z,3.97
2019-05-14T07:10:39.475Z,3.57
2019-05-14T07:13:09.173Z,3.70
2019-05-14T07:15:38.862Z,4.27
2019-05-14T07:18:08.726Z,4.07
2019-05-14T07:20:39.271Z,5.07
2019-05-14T07:23:09.039Z,3.43
2019-05-14T07:25:39.301Z,3.27
2019-05-14T07:28:09.080Z,3.40
2019-05-14T07:30:39.593Z,3.53
2019-05-14T07:33:09.617Z,2.93
2019-05-14T07:35:39.126Z,3.40
2019-05-14T07:38:09.115Z,3.40
2019-05-14T07:40:39.125Z,2.40
2019-05-14T07:43:09.162Z,2.87
2019-05-14T07:45:38.776Z,3.70
2019-05-14T07:48:09.368Z,2.87
2019-05-14T07:50:39.827Z,3.93
2019-05-14T07:53:09.484Z,3.67
2019-05-14T07:55:39.047Z,3.03
2019-05-14T07:58:08.560Z,4.10
2019-05-14T08:00:40.181Z,3.33
2019-05-14T08:03:09.459Z,3.43
2019-05-14T08:05:39.191Z,3.90
2019-05-14T08:08:08.787Z,3.77
2019-05-14T08:10:39.205Z,3.37
2019-05-14T08:13:09.010Z,3.60
2019-05-14T08:15:38.814Z,3.40
2019-05-14T08:18:08.324Z,3.20
2019-05-14T08:20:38.144Z,4.10
2019-05-14T08:23:08.943Z,3.40
2019-05-14T08:25:39.135Z,3.27
2019-05-14T08:28:08.643Z,3.37
2019-05-14T08:30:38.963Z,3.17
2019-05-14T08:33:09.013Z,3.10
2019-05-14T08:35:39.504Z,3.33
2019-05-14T08:38:12.056Z,2.80
2019-05-14T08:40:40.410Z,4.13
2019-05-14T08:43:09.891Z,3.10
2019-05-14T08:45:39.530Z,2.83
2019-05-14T08:48:09.297Z,3.57
2019-05-14T08:50:38.983Z,2.93
2019-05-14T08:53:09.192Z,2.73
2019-05-14T08:55:38.712Z,2.20
2019-05-14T08:58:13.615Z,2.77
2019-05-14T09:00:39.526Z,2.17
2019-05-14T09:03:09.074Z,2.43
2019-05-14T09:05:38.790Z,2.47
2019-05-14T09:08:08.961Z,2.83
2019-05-14T09:10:40.222Z,2.30
2019-05-14T09:13:09.782Z,2.57
2019-05-14T09:15:39.323Z,2.67
2019-05-14T09:18:11.855Z,2.33
2019-05-14T09:20:40.047Z,2.47
2019-05-14T09:23:09.583Z,2.60
2019-05-14T09:25:47.172Z,2.47
2019-05-14T09:28:10.472Z,2.60
2019-05-14T09:30:39.940Z,1.90
2019-05-14T09:33:09.504Z,2.23
2019-05-14T09:35:38.972Z,2.60
2019-05-14T09:38:08.811Z,2.17
2019-05-14T09:40:39.619Z,2.20
2019-05-14T09:43:09.464Z,2.50
2019-05-14T09:45:39.287Z,2.23
2019-05-14T09:48:08.966Z,1.80
2019-05-14T09:50:38.623Z,2.13
2019-05-14T09:53:09.686Z,2.20
2019-05-14T09:55:39.352Z,1.97
2019-05-14T09:58:08.830Z,1.90
2019-05-14T10:00:39.049Z,2.10
2019-05-14T10:03:09.858Z,2.90
2019-05-14T10:05:39.513Z,2.10
2019-05-14T10:08:09.169Z,2.10
2019-05-14T10:10:39.912Z,2.43
2019-05-14T10:13:09.956Z,1.87
2019-05-14T10:15:39.547Z,2.37
2019-05-14T10:18:11.865Z,2.10
2019-05-14T10:20:45.494Z,2.00
2019-05-14T10:23:11.557Z,2.20
2019-05-14T10:25:42.501Z,1.90
2019-05-14T10:28:12.113Z,1.87
2019-05-14T10:30:41.687Z,1.97
2019-05-14T10:33:14.991Z,2.20
2019-05-14T10:35:42.678Z,1.93
2019-05-14T10:38:12.161Z,2.10
2019-05-14T10:40:41.726Z,1.83
2019-05-14T10:43:11.294Z,1.77
2019-05-14T10:45:40.921Z,2.37
2019-05-14T10:48:10.416Z,1.70
2019-05-14T10:50:55.810Z,1.67
2019-05-14T10:53:11.126Z,1.87
2019-05-14T10:55:40.747Z,1.87
2019-05-14T10:58:10.353Z,2.40
2019-05-14T11:00:41.930Z,1.73
2019-05-14T11:03:11.177Z,2.17
2019-05-14T11:05:41.498Z,1.80
2019-05-14T11:08:12.065Z,2.30
2019-05-14T11:10:42.768Z,1.87
2019-05-14T11:13:12.352Z,2.00
2019-05-14T11:15:41.920Z,2.13
2019-05-14T11:18:11.462Z,2.13
2019-05-14T11:20:42.261Z,2.00
2019-05-14T11:23:11.998Z,1.93
2019-05-14T11:25:41.577Z,2.33
2019-05-14T11:28:11.049Z,2.23
2019-05-14T11:30:40.640Z,1.87
2019-05-14T11:33:10.136Z,1.83
2019-05-14T11:35:39.682Z,1.80
2019-05-14T11:38:28.071Z,1.90
2019-05-14T11:40:40.383Z,1.77
2019-05-14T11:43:09.882Z,1.70
2019-05-14T11:45:39.664Z,1.83
2019-05-14T11:48:09.260Z,2.10
2019-05-14T11:50:38.766Z,2.30
2019-05-14T11:53:08.545Z,1.97
2019-05-14T11:55:38.942Z,2.10
2019-05-14T11:58:08.842Z,2.20
2019-05-14T12:00:38.892Z,2.87
2019-05-14T12:03:09.168Z,2.07
2019-05-14T12:05:39.032Z,2.30
2019-05-14T12:08:08.726Z,2.30
2019-05-14T12:10:38.670Z,2.13
2019-05-14T12:13:08.676Z,1.97
2019-05-14T12:15:38.809Z,2.70
2019-05-14T12:18:10.394Z,1.53
2019-05-14T12:20:39.922Z,2.20
2019-05-14T12:23:09.399Z,2.00
2019-05-14T12:25:38.915Z,2.03
2019-05-14T12:28:13.627Z,1.97
2019-05-14T12:30:39.787Z,1.70
2019-05-14T12:33:09.267Z,1.90
2019-05-14T12:35:40.302Z,2.33
2019-05-14T12:38:10.140Z,2.20
2019-05-14T12:40:39.650Z,2.40
2019-05-14T12:43:09.715Z,1.70
2019-05-14T12:45:39.592Z,1.77
2019-05-14T12:48:09.479Z,1.60
2019-05-14T12:50:39.470Z,1.67
2019-05-14T12:53:09.062Z,2.40
2019-05-14T12:55:40.313Z,2.00
2019-05-14T12:58:09.884Z,1.90
2019-05-14T13:00:39.648Z,1.90
2019-05-14T13:03:09.338Z,1.60
2019-05-14T13:05:38.876Z,1.27
2019-05-14T13:08:11.507Z,1.80
2019-05-14T13:10:39.786Z,2.00
2019-05-14T13:13:09.272Z,1.50
2019-05-14T13:15:39.437Z,1.57
2019-05-14T13:18:08.999Z,1.60
2019-05-14T13:20:39.050Z,1.60
2019-05-14T13:23:10.079Z,1.80
2019-05-14T13:25:39.781Z,1.40
2019-05-14T13:28:09.368Z,2.30
2019-05-14T13:30:38.869Z,1.60
2019-05-14T13:33:08.971Z,1.63
2019-05-14T13:35:39.096Z,1.27
2019-05-14T13:38:14.135Z,1.80
2019-05-14T13:40:40.074Z,1.70
2019-05-14T13:43:09.965Z,1.70
2019-05-14T13:45:39.619Z,1.63
2019-05-14T13:48:09.083Z,1.70
2019-05-14T13:50:40.011Z,1.50
2019-05-14T13:53:12.841Z,1.70
2019-05-14T13:55:46.142Z,1.93
2019-05-14T13:58:12.436Z,1.40
2019-05-14T14:00:42.009Z,1.80
2019-05-14T14:03:11.552Z,1.83
2019-05-14T14:05:41.077Z,1.63
2019-05-14T14:08:10.661Z,2.27
2019-05-14T14:10:45.435Z,1.57
2019-05-14T14:13:11.683Z,1.50
2019-05-14T14:15:41.245Z,1.47
2019-05-14T14:18:10.746Z,1.57
2019-05-14T14:20:40.242Z,1.73
2019-05-14T14:23:21.984Z,1.53
2019-05-14T14:25:41.024Z,1.50
2019-05-14T14:28:10.629Z,1.97
2019-05-14T14:30:40.184Z,1.80
2019-05-14T14:33:09.730Z,1.60
2019-05-14T14:35:39.316Z,1.80
2019-05-14T14:38:08.978Z,1.53
2019-05-14T14:40:39.575Z,1.90
2019-05-14T14:43:09.344Z,1.10
2019-05-14T14:45:44.782Z,1.90
2019-05-14T14:48:12.244Z,1.30
2019-05-14T14:50:41.376Z,1.73
2019-05-14T14:53:10.925Z,1.50
2019-05-14T14:55:40.562Z,1.27
2019-05-14T14:58:11.482Z,1.50
2019-05-14T15:00:41.420Z,1.77
2019-05-14T15:03:11.003Z,1.73
2019-05-14T15:05:40.500Z,1.87
2019-05-14T15:08:10.424Z,2.03
2019-05-14T15:10:40.047Z,1.67
2019-05-14T15:13:09.527Z,1.77
2019-05-14T15:15:39.439Z,2.00
2019-05-14T15:18:10.114Z,1.37
2019-05-14T15:20:40.216Z,1.50
2019-05-14T15:23:10.112Z,1.57
2019-05-14T15:25:39.630Z,1.80
2019-05-14T15:28:09.536Z,1.50
2019-05-14T15:30:39.721Z,1.47
2019-05-14T15:33:09.424Z,1.80
2019-05-14T15:35:39.025Z,1.80
2019-05-14T15:38:11.389Z,1.40
2019-05-14T15:40:40.216Z,4.13
2019-05-14T15:43:10.111Z,1.90
2019-05-14T15:45:39.768Z,1.60
2019-05-14T15:48:09.279Z,1.50
2019-05-14T15:50:39.089Z,1.80
2019-05-14T15:53:11.274Z,1.50
2019-05-14T15:55:39.864Z,1.70
2019-05-14T15:58:09.341Z,2.43
2019-05-14T16:00:38.976Z,1.33
2019-05-14T16:03:08.985Z,2.03
2019-05-14T16:05:39.392Z,1.57
2019-05-14T16:08:09.259Z,1.90
2019-05-14T16:10:39.855Z,2.30
2019-05-14T16:13:09.667Z,1.63
2019-05-14T16:15:39.177Z,1.50
2019-05-14T16:18:18.371Z,1.30
2019-05-14T16:20:39.993Z,1.60
2019-05-14T16:23:10.868Z,1.47
2019-05-14T16:25:40.789Z,3.10
2019-05-14T16:28:10.361Z,3.50
2019-05-14T16:30:39.940Z,2.17
2019-05-14T16:33:09.537Z,1.73
2019-05-14T16:35:39.383Z,2.40
2019-05-14T16:38:08.961Z,3.90
2019-05-14T16:40:39.592Z,2.80
2019-05-14T16:43:09.188Z,2.60
2019-05-14T16:45:39.558Z,3.23
2019-05-14T16:48:10.804Z,7.60
2019-05-14T16:50:40.634Z,1.77
2019-05-14T16:53:11.634Z,1.10
2019-05-14T16:55:41.352Z,1.50
2019-05-14T16:58:10.835Z,1.40
2019-05-14T17:00:40.332Z,1.17
2019-05-14T17:03:09.935Z,1.30
2019-05-14T17:05:39.409Z,1.87
2019-05-14T17:08:10.057Z,1.40
2019-05-14T17:10:39.566Z,1.40
2019-05-14T17:13:09.230Z,2.13
2019-05-14T17:15:39.372Z,1.73
2019-05-14T17:18:09.083Z,1.53
2019-05-14T17:20:39.459Z,1.70
2019-05-14T17:23:09.207Z,1.43
2019-05-14T17:25:39.154Z,1.50
2019-05-14T17:28:08.746Z,1.70
2019-05-14T17:30:38.687Z,1.70
2019-05-14T17:33:09.663Z,1.80
2019-05-14T17:35:39.304Z,1.47
2019-05-14T17:38:09.337Z,1.73
2019-05-14T17:40:39.630Z,2.07
2019-05-14T17:43:09.390Z,1.70
2019-05-14T17:45:39.281Z,1.50
2019-05-14T17:48:08.849Z,1.43
2019-05-14T17:50:38.607Z,1.90
2019-05-14T17:53:09.733Z,1.20
2019-05-14T17:55:46.564Z,1.60
2019-05-14T17:58:13.115Z,1.50
2019-05-14T18:00:42.074Z,1.03
2019-05-14T18:03:11.578Z,1.50
2019-05-14T18:05:41.158Z,1.27
2019-05-14T18:08:10.682Z,1.53
2019-05-14T18:10:40.252Z,1.10
2019-05-14T18:13:09.853Z,1.40
2019-05-14T18:15:39.610Z,1.53
2019-05-14T18:18:09.307Z,1.43
2019-05-14T18:20:39.597Z,1.50
2019-05-14T18:23:11.689Z,1.53
2019-05-14T18:25:40.494Z,1.10
2019-05-14T18:28:10.059Z,1.40
2019-05-14T18:30:39.624Z,1.37
2019-05-14T18:33:09.131Z,1.23
2019-05-14T18:35:44.474Z,1.60
2019-05-14T18:38:10.048Z,1.23
2019-05-14T18:40:39.831Z,1.10
2019-05-14T18:43:09.363Z,1.40
2019-05-14T18:45:39.045Z,2.07
2019-05-14T18:48:08.636Z,1.70
2019-05-14T18:50:38.327Z,2.30
2019-05-14T18:53:09.051Z,1.87
2019-05-14T18:55:39.143Z,2.53
2019-05-14T18:58:08.753Z,2.50
2019-05-14T19:00:38.813Z,1.53
2019-05-14T19:03:08.594Z,1.60
2019-05-14T19:05:38.363Z,1.50
2019-05-14T19:08:07.951Z,3.50
2019-05-14T19:10:39.169Z,1.97
2019-05-14T19:13:08.913Z,1.93
2019-05-14T19:15:38.862Z,2.20
2019-05-14T19:18:09.130Z,1.73
2019-05-14T19:20:39.207Z,1.30
2019-05-14T19:23:08.993Z,1.20
2019-05-14T19:25:39.016Z,1.63
2019-05-14T19:28:08.990Z,1.40
2019-05-14T19:30:38.572Z,1.87
2019-05-14T19:33:08.559Z,1.40
2019-05-14T19:35:39.462Z,1.83
2019-05-14T19:38:09.120Z,1.27
2019-05-14T19:40:39.312Z,1.20
2019-05-14T19:43:09.517Z,1.60
2019-05-14T19:45:39.198Z,1.43
2019-05-14T19:48:08.777Z,1.80
2019-05-14T19:50:38.867Z,1.57
2019-05-14T19:53:10.126Z,1.40
2019-05-14T19:55:39.695Z,1.30
2019-05-14T19:58:09.191Z,1.20
2019-05-14T20:00:39.283Z,1.67
2019-05-14T20:03:08.966Z,1.47
2019-05-14T20:05:39.443Z,1.12
2019-05-14T20:08:09.325Z,1.30
2019-05-14T20:10:39.064Z,1.20
2019-05-14T20:13:08.688Z,1.60
2019-05-14T20:15:38.928Z,1.50
2019-05-14T20:18:08.996Z,1.42
2019-05-14T20:20:39.336Z,1.27
2019-05-14T20:23:08.915Z,1.30
2019-05-14T20:25:38.876Z,1.50
2019-05-14T20:28:08.518Z,1.25
2019-05-14T20:30:38.744Z,1.75
2019-05-14T20:33:08.688Z,1.30
2019-05-14T20:35:38.346Z,1.22
2019-05-14T20:38:09.077Z,1.40
2019-05-14T20:40:38.730Z,1.20
2019-05-14T20:43:10.350Z,1.45
2019-05-14T20:45:39.501Z,1.10
2019-05-14T20:48:09.033Z,1.42
2019-05-14T20:50:38.621Z,1.52
2019-05-14T20:53:08.522Z,1.22
2019-05-14T20:55:38.914Z,1.37
2019-05-14T20:58:08.521Z,1.37
2019-05-14T21:00:41.261Z,1.25
2019-05-14T21:03:09.528Z,1.30
2019-05-14T21:05:42.214Z,1.62
2019-05-14T21:08:13.439Z,1.45
2019-05-14T21:13:33.880Z,1.22
2019-05-14T21:16:22.723Z,1.40
2019-05-14T21:19:11.575Z,1.40
2019-05-14T21:22:01.158Z,1.35
2019-05-14T21:24:53.166Z,1.50
2019-05-14T21:27:48.371Z,1.40
2019-05-14T21:30:35.174Z,1.45
2019-05-14T21:33:22.681Z,1.47
2019-05-14T21:36:12.348Z,1.20
2019-05-14T21:39:02.128Z,1.62
2019-05-14T21:41:31.712Z,1.60
2019-05-14T21:44:20.570Z,1.80
2019-05-14T21:47:09.386Z,1.60
2019-05-14T21:49:58.242Z,1.22
2019-05-14T21:52:42.265Z,1.42
2019-05-14T21:55:30.767Z,1.50
2019-05-14T21:58:19.885Z,1.30
2019-05-14T22:01:10.348Z,1.60
2019-05-14T22:03:59.402Z,1.67
2019-05-14T22:06:49.014Z,1.77
2019-05-14T22:09:41.131Z,1.70
2019-05-14T22:12:29.391Z,1.32
2019-05-14T22:15:18.606Z,1.95
2019-05-14T22:18:16.947Z,1.60
2019-05-14T22:20:59.607Z,1.75
2019-05-14T22:23:48.432Z,1.65
2019-05-14T22:26:38.823Z,2.12
2019-05-14T22:29:28.635Z,1.67
2019-05-14T22:32:19.028Z,2.30
2019-05-14T22:35:09.163Z,1.95
2019-05-14T22:37:59.656Z,2.00
2019-05-14T22:40:48.776Z,2.50
2019-05-14T22:43:38.349Z,3.22
2019-05-14T22:46:28.214Z,2.75
2019-05-14T22:49:19.144Z,2.00
2019-05-14T22:52:00.410Z,2.27
2019-05-14T22:54:49.253Z,1.70
2019-05-14T22:57:39.354Z,2.30
2019-05-14T23:00:28.996Z,1.92
2019-05-14T23:03:21.227Z,1.98
2019-05-14T23:06:09.892Z,1.40
2019-05-14T23:08:58.782Z,1.77
2019-05-14T23:11:47.991Z,2.15
2019-05-14T23:14:39.081Z,2.30
2019-05-14T23:17:28.740Z,2.62
2019-05-14T23:20:19.605Z,3.17
2019-05-14T23:23:09.296Z,2.58
2019-05-14T23:25:58.986Z,2.60
2019-05-14T23:28:49.382Z,1.87
2019-05-14T23:31:38.702Z,1.90
2019-05-14T23:34:28.933Z,2.20
2019-05-14T23:40:33.066Z,2.10
2019-05-14T23:43:21.893Z,2.05
2019-05-14T23:46:10.802Z,1.92
2019-05-14T23:48:59.641Z,1.95
2019-05-14T23:51:48.482Z,1.98
2019-05-14T23:54:38.554Z,1.65
2019-05-14T23:57:28.810Z,2.08
